CST,Max TemperatureF,Mean TemperatureF,Min TemperatureF,Max Dew PointF,MeanDew PointF,Min DewpointF,Max Humidity, Mean Humidity, Min Humidity, Max Sea Level PressureIn, Mean Sea Level PressureIn, Min Sea Level PressureIn, Max VisibilityMiles, Mean VisibilityMiles, Min VisibilityMiles, Max Wind SpeedMPH, Mean Wind SpeedMPH, Max Gust SpeedMPH,PrecipitationIn, CloudCover, Events, WindDirDegrees
2013-1-1,39,34,28,37,33,24,100,89,78,30.20,30.10,30.02,10,4,1,18,8,21,0.02,8,Rain,3
2013-1-2,34,30,25,25,23,21,92,78,64,30.29,30.24,30.18,10,7,3,14,4,17,0.00,4,,8
2013-1-3,42,31,20,26,22,18,96,70,43,30.45,30.35,30.27,10,8,3,15,3,18,0.00,0,,321
2013-1-4,46,34,21,26,22,18,96,72,41,30.49,30.43,30.40,10,10,6,15,4,18,0.00,1,,256
2013-1-5,47,35,22,28,25,20,96,71,45,30.42,30.33,30.24,10,10,8,14,4,17,T,4,Rain,192
2013-1-6,48,36,23,35,29,21,85,69,53,30.42,30.26,30.18,10,10,5,21,7,25,0.00,4,,259
2013-1-7,45,32,19,27,23,17,96,73,49,30.48,30.38,30.26,10,6,2,9,2,10,0.00,0,,85
2013-1-8,59,42,25,36,31,23,85,63,40,30.34,30.26,30.22,10,10,7,14,5,17,0.00,0,,158
2013-1-9,54,49,44,49,46,38,100,85,70,30.43,30.38,30.27,10,7,1,10,5,13,0.09,6,Rain,80
2013-1-10,66,57,47,60,53,43,96,85,74,30.42,30.21,29.93,10,8,2,22,12,33,0.48,8,Rain,123
2013-1-11,69,63,56,63,55,49,93,71,49,30.03,29.96,29.90,10,8,1,24,11,32,0.69,5,Rain,213
2013-1-12,70,67,63,65,63,60,93,83,73,30.00,29.92,29.79,10,10,2,23,9,31,0.03,7,Rain,172
2013-1-13,69,49,29,61,45,24,100,87,73,30.28,29.95,29.78,10,6,1,23,11,29,2.07,8,Rain-Thunderstorm,316
2013-1-14,30,28,25,23,22,21,88,79,69,30.39,30.35,30.28,10,10,8,17,11,22,T,6,,9
2013-1-15,32,29,25,29,26,21,92,85,78,30.31,30.17,30.04,8,6,3,17,9,22,0.10,7,Rain,22
2013-1-16,33,32,31,30,29,28,92,87,82,30.16,30.11,30.04,8,6,4,12,4,23,0.00,6,,331
2013-1-17,48,39,29,34,29,24,92,76,60,30.47,30.24,30.13,10,9,5,25,10,32,0.00,3,,353
2013-1-18,49,36,22,28,24,21,96,68,39,30.59,30.47,30.35,10,10,8,14,4,16,0.00,0,,200
2013-1-19,58,45,31,31,28,25,70,50,30,30.35,30.23,30.12,10,10,10,21,11,29,0.00,0,,199
2013-1-20,48,38,27,31,25,18,82,56,29,30.28,30.22,30.14,10,10,10,16,6,18,0.00,0,,332
2013-1-21,37,29,20,20,14,8,75,55,35,30.34,30.29,30.22,10,10,10,20,9,25,0.00,1,,331
2013-1-22,27,22,16,9,3,-2,61,47,32,30.48,30.41,30.35,10,10,10,15,5,17,0.00,4,,359
2013-1-23,50,33,16,30,20,8,80,60,39,30.40,30.28,30.16,10,10,10,14,4,17,0.00,0,,247
2013-1-24,35,29,23,28,13,6,82,59,35,30.55,30.41,30.25,10,10,10,24,11,30,0.00,1,,54
2013-1-25,35,31,26,30,26,7,100,68,36,30.26,30.18,30.11,10,5,0,15,5,18,0.14,6,Fog-Rain,4
2013-1-26,46,35,23,31,26,21,100,77,53,30.37,30.30,30.24,10,4,0,9,3,12,0.00,0,Fog,34
2013-1-27,50,38,25,43,35,24,92,82,71,30.36,30.27,30.17,10,6,2,12,5,16,0.04,6,Rain,120
2013-1-28,63,56,49,53,48,37,86,73,59,30.18,30.13,30.09,10,10,5,20,10,26,0.03,5,Rain,185
2013-1-29,71,63,55,61,57,52,86,77,68,30.08,29.86,29.53,10,10,9,28,14,37,0.00,6,,180
2013-1-30,72,54,34,63,46,22,100,78,59,29.91,29.57,29.44,10,8,1,26,19,44,1.23,7,Rain-Thunderstorm,246
2013-1-31,44,38,31,34,24,18,63,66,43,30.28,30.08,29.94,10,8,1,24,14,29,0.00,6,Rain-Snow,281